Time;durP1;ratioP1;P1;durP2;ratioP2;P2;SDS_P1;SDS_P2;PMS_P1;PMS_P2;Temp;Humidity;BMP_temperature;BMP_pressure;BME280_temperature;BME280_humidity;BME280_pressure;Samples;Min_cycle;Max_cycle;Signal;HPM_P1;HPM_P2
2023/10/15 00:02:04;;;;;;;5.73;2.43;;;9.10;1.00;;;;;;4974762;28;20205;-79
2023/10/15 00:04:29;;;;;;;10.27;3.30;;;9.10;1.00;;;;;;4969908;28;20267;-79
2023/10/15 00:06:54;;;;;;;5.47;2.60;;;9.10;1.00;;;;;;4973398;28;20196;-79
2023/10/15 00:09:20;;;;;;;7.27;2.93;;;9.10;1.00;;;;;;4973829;28;20308;-79
2023/10/15 00:11:45;;;;;;;5.07;2.80;;;9.00;1.00;;;;;;4973277;28;20184;-79
2023/10/15 00:14:11;;;;;;;6.43;2.83;;;9.00;1.00;;;;;;4973667;28;20259;-78
2023/10/15 00:16:36;;;;;;;7.83;2.87;;;9.00;1.00;;;;;;4973522;28;20197;-79
2023/10/15 00:19:11;;;;;;;6.10;3.13;;;9.00;1.00;;;;;;4974542;28;20181;-78
2023/10/15 00:21:38;;;;;;;6.50;3.03;;;9.00;1.00;;;;;;4967938;28;20578;-78
2023/10/15 00:24:07;;;;;;;7.23;2.80;;;9.00;1.00;;;;;;4975589;28;20475;-79
2023/10/15 00:26:34;;;;;;;11.48;3.30;;;8.90;1.00;;;;;;4974458;28;20454;-78
2023/10/15 00:29:00;;;;;;;6.10;2.60;;;8.90;1.00;;;;;;4966367;28;20693;-78
2023/10/15 00:31:25;;;;;;;11.23;3.10;;;8.90;47.60;;;;;;4968861;28;20865;-78
2023/10/15 00:33:51;;;;;;;8.13;2.80;;;8.90;99.90;;;;;;4971608;28;20212;-78
2023/10/15 00:36:16;;;;;;;14.73;3.43;;;8.90;99.90;;;;;;4972856;28;20196;-78
2023/10/15 00:38:46;;;;;;;6.43;2.90;;;8.90;99.90;;;;;;4969897;28;20236;-78
2023/10/15 00:41:14;;;;;;;7.20;3.10;;;8.90;99.90;;;;;;4968979;28;20207;-78
2023/10/15 00:43:58;;;;;;;8.87;3.20;;;8.80;99.90;;;;;;4972447;28;20460;-78
2023/10/15 00:46:27;;;;;;;7.17;2.83;;;8.80;99.90;;;;;;4962414;28;20432;-78
2023/10/15 00:48:56;;;;;;;6.53;2.67;;;8.80;99.90;;;;;;4972873;28;20519;-78
2023/10/15 00:51:22;;;;;;;7.13;2.73;;;8.80;99.90;;;;;;4967894;28;20441;-79
2023/10/15 00:53:54;;;;;;;10.50;3.63;;;8.80;99.90;;;;;;4971342;28;20459;-78
2023/10/15 00:56:23;;;;;;;6.67;2.87;;;8.80;99.90;;;;;;4973261;28;20472;-78
2023/10/15 01:01:33;;;;;;;7.83;3.00;;;8.70;99.90;;;;;;4973692;28;20475;-78
2023/10/15 01:03:59;;;;;;;7.55;2.63;;;8.70;99.90;;;;;;4969708;28;20491;-78
2023/10/15 01:09:08;;;;;;;8.93;2.87;;;8.70;99.90;;;;;;4970292;28;20447;-78
2023/10/15 01:11:38;;;;;;;11.10;2.73;;;8.70;99.90;;;;;;4971705;28;20486;-78
2023/10/15 01:14:04;;;;;;;9.33;2.93;;;8.70;99.90;;;;;;4971840;28;20829;-78
2023/10/15 01:16:34;;;;;;;9.60;2.77;;;8.70;99.90;;;;;;4964278;28;20522;-78
2023/10/15 01:21:51;;;;;;;6.37;2.97;;;8.70;99.90;;;;;;4966017;28;20503;-78
2023/10/15 01:24:20;;;;;;;14.67;3.83;;;8.70;99.90;;;;;;4964519;28;20506;-78
2023/10/15 01:29:33;;;;;;;11.33;3.37;;;8.70;99.90;;;;;;4967961;28;22137;-78
2023/10/15 01:32:03;;;;;;;14.00;3.00;;;8.70;99.90;;;;;;4966902;28;20443;-78
2023/10/15 01:34:37;;;;;;;7.20;2.92;;;8.70;99.90;;;;;;4972170;28;20589;-78
2023/10/15 01:40:37;;;;;;;5.50;3.20;;;8.60;99.90;;;;;;4972045;28;20854;-78
2023/10/15 01:42:46;;;;;;;5.00;2.70;;;8.60;99.90;;;;;;4963500;28;20580;-78
2023/10/15 01:47:54;;;;;;;9.87;4.27;;;8.60;99.90;;;;;;4976590;28;20499;-78
2023/10/15 01:50:23;;;;;;;9.10;3.33;;;8.50;99.90;;;;;;4976611;28;20185;-78
2023/10/15 01:53:01;;;;;;;5.17;3.30;;;8.50;99.90;;;;;;4976345;28;20436;-78
2023/10/15 01:55:28;;;;;;;9.80;3.90;;;8.50;99.90;;;;;;4973270;28;20459;-78
2023/10/15 01:57:55;;;;;;;7.57;3.80;;;8.50;99.90;;;;;;4976095;28;20937;-78
2023/10/15 02:02:59;;;;;;;8.20;3.80;;;8.50;99.90;;;;;;4974899;28;20432;-78
2023/10/15 02:05:40;;;;;;;11.77;3.63;;;8.50;99.90;;;;;;4975563;28;20459;-79
2023/10/15 02:08:07;;;;;;;7.47;3.33;;;8.50;99.90;;;;;;4974564;28;20177;-78
2023/10/15 02:10:35;;;;;;;10.60;3.72;;;8.50;99.90;;;;;;4972404;28;20436;-78
2023/10/15 02:13:04;;;;;;;8.20;3.20;;;8.60;99.90;;;;;;4973784;28;20181;-78
2023/10/15 02:15:33;;;;;;;7.20;4.18;;;8.60;99.90;;;;;;4976205;28;20464;-79
2023/10/15 02:17:59;;;;;;;7.87;4.03;;;8.60;99.90;;;;;;4973028;28;20287;-79
2023/10/15 02:23:11;;;;;;;8.82;4.13;;;8.60;99.90;;;;;;4972739;28;20199;-78
2023/10/15 02:25:44;;;;;;;9.97;4.33;;;8.60;99.90;;;;;;4975116;28;20565;-79
2023/10/15 02:28:10;;;;;;;9.63;3.67;;;8.70;99.90;;;;;;4973831;28;20462;-78
2023/10/15 02:30:36;;;;;;;8.50;3.80;;;8.60;99.90;;;;;;4976154;28;20452;-78
2023/10/15 02:33:01;;;;;;;8.20;3.90;;;8.70;99.90;;;;;;4975027;28;20220;-79
2023/10/15 02:35:32;;;;;;;5.90;3.30;;;8.70;99.90;;;;;;4974686;28;20209;-79
2023/10/15 02:37:59;;;;;;;10.13;4.90;;;8.80;99.90;;;;;;4969524;28;20192;-79
2023/10/15 02:40:35;;;;;;;7.97;3.10;;;8.80;99.90;;;;;;4966817;28;20496;-79
2023/10/15 02:43:06;;;;;;;7.10;3.30;;;8.80;99.90;;;;;;4974052;28;20968;-79
2023/10/15 02:45:35;;;;;;;8.90;3.37;;;8.90;99.90;;;;;;4972649;28;20805;-78
2023/10/15 02:48:10;;;;;;;11.10;3.55;;;9.00;99.90;;;;;;4975333;28;20443;-79
2023/10/15 02:50:35;;;;;;;10.03;3.10;;;9.00;99.90;;;;;;4970119;28;20191;-78
2023/10/15 02:53:04;;;;;;;6.70;3.00;;;9.00;99.90;;;;;;4974894;28;20548;-78
2023/10/15 02:55:35;;;;;;;7.10;3.00;;;9.10;99.90;;;;;;4969640;28;20201;-79
2023/10/15 02:58:02;;;;;;;9.33;3.10;;;9.10;99.90;;;;;;4974081;28;20467;-78
2023/10/15 03:00:28;;;;;;;8.37;3.47;;;9.10;99.90;;;;;;4988157;28;21000;-79
2023/10/15 03:02:58;;;;;;;9.83;3.67;;;9.10;49.40;;;;;;4971116;28;20490;-78
2023/10/15 03:05:38;;;;;;;5.67;3.00;;;9.20;25.70;;;;;;4975839;28;20616;-78
2023/10/15 03:08:04;;;;;;;10.60;4.57;;;9.20;8.50;;;;;;4968246;28;20432;-78
2023/10/15 03:10:44;;;;;;;10.47;3.67;;;9.20;1.00;;;;;;4975971;28;20476;-78
2023/10/15 03:13:14;;;;;;;6.17;2.90;;;9.20;1.00;;;;;;4976042;28;20940;-78
2023/10/15 03:15:48;;;;;;;8.73;2.83;;;9.20;1.00;;;;;;4973635;28;20451;-78
2023/10/15 03:18:28;;;;;;;6.50;2.70;;;9.20;1.00;;;;;;4975601;28;20957;-78
2023/10/15 03:21:09;;;;;;;6.77;2.80;;;9.20;1.00;;;;;;4970139;28;20486;-78
2023/10/15 03:23:35;;;;;;;9.47;3.37;;;9.20;1.00;;;;;;4974465;28;20468;-78
2023/10/15 03:26:01;;;;;;;7.20;2.87;;;9.10;1.00;;;;;;4974580;28;20435;-78
2023/10/15 03:28:26;;;;;;;13.60;3.23;;;9.10;1.00;;;;;;4971697;28;20467;-78
2023/10/15 03:30:55;;;;;;;7.60;2.70;;;9.10;1.00;;;;;;4975013;28;20220;-78
2023/10/15 03:33:23;;;;;;;6.77;2.90;;;9.10;1.00;;;;;;4966216;28;20197;-79
2023/10/15 03:35:54;;;;;;;6.20;3.53;;;9.20;1.00;;;;;;4971266;28;20440;-78
2023/10/15 03:38:24;;;;;;;7.73;3.67;;;9.20;1.00;;;;;;4974281;28;20435;-78
2023/10/15 03:40:50;;;;;;;8.10;2.67;;;9.20;1.00;;;;;;4969613;28;20456;-78
2023/10/15 03:43:20;;;;;;;8.53;3.40;;;9.20;1.00;;;;;;4973519;28;20443;-78
2023/10/15 03:45:51;;;;;;;5.83;2.80;;;9.20;1.00;;;;;;4967461;28;20439;-78
2023/10/15 03:48:21;;;;;;;6.20;2.50;;;9.20;1.00;;;;;;4968197;28;20976;-78
2023/10/15 03:50:53;;;;;;;7.93;2.60;;;9.20;1.00;;;;;;4966340;28;20436;-78
2023/10/15 03:53:28;;;;;;;8.77;3.70;;;9.10;1.00;;;;;;4969241;28;21051;-78
2023/10/15 03:55:58;;;;;;;4.07;3.00;;;9.10;1.00;;;;;;4973920;28;20486;-78
2023/10/15 03:58:28;;;;;;;5.90;2.87;;;9.10;21.90;;;;;;4973513;28;20531;-78
2023/10/15 04:01:11;;;;;;;10.37;3.03;;;9.10;1.00;;;;;;4973274;28;20476;-77
2023/10/15 04:03:42;;;;;;;9.70;3.20;;;9.10;1.00;;;;;;4968348;28;20494;-78
2023/10/15 04:06:07;;;;;;;5.40;2.80;;;9.20;5.20;;;;;;4973149;28;20428;-77
2023/10/15 04:08:33;;;;;;;3.83;2.53;;;9.20;1.00;;;;;;4972739;28;20861;-78
2023/10/15 04:10:59;;;;;;;4.63;2.73;;;9.20;1.00;;;;;;4964874;28;20196;-79
2023/10/15 04:13:28;;;;;;;7.80;2.60;;;9.20;1.00;;;;;;4972785;28;20185;-78
2023/10/15 04:15:54;;;;;;;8.37;3.00;;;9.20;1.00;;;;;;4971837;28;21044;-78
2023/10/15 04:18:24;;;;;;;8.80;2.50;;;9.20;1.00;;;;;;4972563;28;20467;-77
2023/10/15 04:20:54;;;;;;;15.50;3.70;;;9.30;1.00;;;;;;4969771;28;20604;-78
2023/10/15 04:23:34;;;;;;;3.60;2.23;;;9.30;1.00;;;;;;4969186;28;20885;-78
2023/10/15 04:26:11;;;;;;;4.67;2.60;;;9.30;1.00;;;;;;4960975;28;20439;-78
2023/10/15 04:28:37;;;;;;;9.47;3.80;;;9.40;1.00;;;;;;4969270;28;20431;-78
2023/10/15 04:31:12;;;;;;;4.10;2.20;;;9.40;1.00;;;;;;4973043;28;20436;-78
2023/10/15 04:33:41;;;;;;;3.93;2.30;;;9.40;99.90;;;;;;4966981;28;20459;-78
2023/10/15 04:36:09;;;;;;;4.80;2.10;;;9.40;99.90;;;;;;4972630;28;20479;-78
2023/10/15 04:38:36;;;;;;;7.83;2.40;;;9.30;99.90;;;;;;4973480;28;20444;-78
2023/10/15 04:41:03;;;;;;;4.87;2.10;;;9.20;99.90;;;;;;4972733;28;20460;-78
2023/10/15 04:43:29;;;;;;;3.40;2.13;;;9.20;99.90;;;;;;4970462;28;20471;-78
2023/10/15 04:45:57;;;;;;;4.20;2.00;;;9.10;99.90;;;;;;4973744;28;20492;-78
2023/10/15 04:48:27;;;;;;;5.87;2.17;;;9.10;11.80;;;;;;4973060;28;20443;-78
2023/10/15 04:50:53;;;;;;;5.40;2.03;;;9.10;1.00;;;;;;4969758;28;20450;-79
2023/10/15 04:55:47;;;;;;;4.70;2.43;;;9.00;1.00;;;;;;4973906;28;20819;-78
2023/10/15 04:58:12;;;;;;;2.77;1.90;;;9.00;1.00;;;;;;4970763;28;20195;-78
2023/10/15 05:00:43;;;;;;;4.70;1.80;;;9.10;1.00;;;;;;4968086;28;20559;-79
2023/10/15 05:03:09;;;;;;;4.60;1.57;;;9.10;1.00;;;;;;4970593;28;20253;-78
2023/10/15 05:05:34;;;;;;;6.37;2.30;;;9.20;1.00;;;;;;4972209;28;20474;-78
2023/10/15 05:08:00;;;;;;;3.73;2.00;;;9.20;1.00;;;;;;4973742;28;20181;-79
2023/10/15 05:10:33;;;;;;;3.60;1.80;;;9.30;1.00;;;;;;4965792;28;20184;-79
2023/10/15 05:12:59;;;;;;;4.20;1.90;;;9.30;1.00;;;;;;4973499;28;20285;-78
2023/10/15 05:15:25;;;;;;;3.70;1.70;;;9.30;1.00;;;;;;4969682;28;20500;-79
2023/10/15 05:17:50;;;;;;;3.53;1.80;;;9.30;1.00;;;;;;4968480;28;20475;-79
2023/10/15 05:20:16;;;;;;;4.77;2.20;;;9.30;1.00;;;;;;4977177;28;20533;-79
2023/10/15 05:22:42;;;;;;;6.97;3.40;;;9.40;1.00;;;;;;4975864;28;20180;-78
2023/10/15 05:25:15;;;;;;;3.20;2.87;;;9.40;1.00;;;;;;4976919;28;20894;-78
2023/10/15 05:27:42;;;;;;;8.37;3.20;;;9.40;1.00;;;;;;4975988;28;20670;-79
2023/10/15 05:30:10;;;;;;;6.13;3.60;;;9.40;1.00;;;;;;4977085;28;20648;-79
2023/10/15 05:32:36;;;;;;;6.13;4.83;;;9.40;1.00;;;;;;4969658;28;20506;-78
2023/10/15 05:35:02;;;;;;;11.17;4.47;;;9.50;1.00;;;;;;4984857;28;20519;-78
2023/10/15 05:37:27;;;;;;;9.53;5.23;;;9.50;23.90;;;;;;4978093;28;20184;-78
2023/10/15 05:39:53;;;;;;;7.30;4.93;;;9.50;99.90;;;;;;4977373;28;20427;-79
2023/10/15 05:42:19;;;;;;;10.10;5.20;;;9.50;99.90;;;;;;4973543;28;20213;-79
2023/10/15 05:44:45;;;;;;;7.40;5.37;;;9.50;99.90;;;;;;4969559;28;20216;-79
2023/10/15 05:47:10;;;;;;;12.37;7.93;;;9.50;99.90;;;;;;4976892;28;20447;-79
2023/10/15 05:49:37;;;;;;;13.97;9.73;;;9.50;99.90;;;;;;4974403;28;20181;-80
2023/10/15 05:52:03;;;;;;;6.73;6.03;;;9.50;16.50;;;;;;4977046;28;20204;-79
2023/10/15 05:54:32;;;;;;;8.70;7.53;;;9.50;99.90;;;;;;4973847;28;20460;-78
2023/10/15 05:56:57;;;;;;;11.63;9.23;;;9.50;99.90;;;;;;4973623;28;20444;-79
2023/10/15 05:59:23;;;;;;;5.70;4.97;;;9.50;93.60;;;;;;4977893;28;21029;-79
2023/10/15 06:01:50;;;;;;;3.37;3.07;;;9.50;1.00;;;;;;4977829;28;20240;-79
2023/10/15 06:04:16;;;;;;;4.43;4.03;;;9.50;1.00;;;;;;4973330;28;20291;-79
2023/10/15 06:06:43;;;;;;;6.17;3.17;;;9.50;1.00;;;;;;4992313;28;21357;-80
2023/10/15 06:09:11;;;;;;;2.67;2.43;;;9.50;1.00;;;;;;4978538;28;20440;-79
2023/10/15 06:11:37;;;;;;;8.00;3.03;;;9.50;1.00;;;;;;4975083;28;20181;-79
2023/10/15 06:14:04;;;;;;;3.13;2.80;;;9.50;1.00;;;;;;4977959;28;20467;-78
2023/10/15 06:16:30;;;;;;;4.03;3.63;;;9.50;99.90;;;;;;4970734;28;20443;-79
2023/10/15 06:18:57;;;;;;;4.43;3.10;;;9.50;99.90;;;;;;4978883;28;20471;-80
2023/10/15 06:21:23;;;;;;;6.37;3.57;;;9.50;7.40;;;;;;4978850;28;20203;-79
2023/10/15 06:23:49;;;;;;;5.50;3.33;;;9.50;1.00;;;;;;4977752;28;20504;-79
2023/10/15 06:26:14;;;;;;;3.60;3.30;;;9.50;1.00;;;;;;4970146;28;20440;-79
2023/10/15 06:28:40;;;;;;;7.63;4.30;;;9.40;99.90;;;;;;4977119;28;20419;-79
2023/10/15 06:31:05;;;;;;;4.80;4.20;;;9.50;16.50;;;;;;4967305;28;20648;-79
2023/10/15 06:33:31;;;;;;;6.60;4.30;;;9.50;71.00;;;;;;4977626;28;20243;-79
2023/10/15 06:35:57;;;;;;;6.57;4.17;;;9.50;28.70;;;;;;4978136;28;20243;-79
2023/10/15 06:38:22;;;;;;;5.70;4.73;;;9.50;93.40;;;;;;4977962;28;20177;-78
2023/10/15 06:40:48;;;;;;;5.97;4.70;;;9.50;99.90;;;;;;4974099;28;20212;-79
2023/10/15 06:43:15;;;;;;;6.63;4.07;;;9.60;99.90;;;;;;4976323;28;20261;-79
2023/10/15 06:45:41;;;;;;;6.03;4.20;;;9.60;99.90;;;;;;4976121;28;20181;-79
2023/10/15 06:48:06;;;;;;;7.93;4.37;;;9.70;10.10;;;;;;4975822;28;20435;-79
2023/10/15 06:50:33;;;;;;;6.80;4.40;;;9.80;1.00;;;;;;4976876;28;20184;-79
2023/10/15 06:53:01;;;;;;;6.80;5.07;;;9.90;99.90;;;;;;4975627;28;20228;-79
2023/10/15 06:55:27;;;;;;;5.27;4.60;;;10.40;99.90;;;;;;4976910;28;20514;-80
2023/10/15 06:57:53;;;;;;;5.40;4.33;;;13.10;1.00;;;;;;4977127;28;20495;-80
2023/10/15 07:00:22;;;;;;;4.63;3.97;;;15.10;1.00;;;;;;4973895;28;20472;-79
2023/10/15 07:02:52;;;;;;;7.90;3.60;;;14.60;1.00;;;;;;4976387;28;20592;-79
2023/10/15 07:05:20;;;;;;;6.20;3.87;;;14.50;1.00;;;;;;4975619;28;20432;-79
2023/10/15 07:07:46;;;;;;;5.60;3.80;;;13.90;1.00;;;;;;4975237;28;20483;-78
2023/10/15 07:10:16;;;;;;;11.27;4.27;;;13.30;1.00;;;;;;4976203;28;20475;-79
2023/10/15 07:12:50;;;;;;;6.43;3.50;;;12.90;1.00;;;;;;4975671;28;20557;-79
2023/10/15 07:15:16;;;;;;;3.90;3.30;;;12.50;31.10;;;;;;4977169;28;20435;-79
2023/10/15 07:17:43;;;;;;;8.07;3.77;;;12.60;99.90;;;;;;4972034;28;20523;-80
2023/10/15 07:20:18;;;;;;;5.33;2.47;;;15.60;1.00;;;;;;4977087;28;20432;-80
2023/10/15 07:22:48;;;;;;;4.60;2.60;;;16.80;99.90;;;;;;4974523;28;20451;-80
2023/10/15 07:25:18;;;;;;;5.97;2.80;;;19.60;99.90;;;;;;4977542;28;20985;-81
2023/10/15 07:27:48;;;;;;;2.83;2.10;;;19.40;99.90;;;;;;4976151;28;20428;-80
2023/10/15 07:30:15;;;;;;;4.60;2.40;;;18.40;99.90;;;;;;4975843;28;20463;-80
2023/10/15 07:32:44;;;;;;;4.13;2.37;;;16.90;99.90;;;;;;4972294;28;20804;-79
2023/10/15 07:35:11;;;;;;;3.87;1.93;;;15.60;99.90;;;;;;4976035;28;20532;-79
2023/10/15 07:37:46;;;;;;;20.97;14.93;;;14.40;99.90;;;;;;4973923;28;20526;-80
2023/10/15 07:40:17;;;;;;;38.57;25.70;;;13.60;99.90;;;;;;4973156;28;20794;-80
2023/10/15 07:43:02;;;;;;;25.60;22.47;;;12.90;1.00;;;;;;4975797;28;20424;-79
2023/10/15 07:45:30;;;;;;;13.13;9.30;;;12.50;1.00;;;;;;4974383;28;20454;-80
2023/10/15 07:47:59;;;;;;;65.47;51.13;;;12.10;99.90;;;;;;4966933;28;20520;-79
2023/10/15 07:50:26;;;;;;;9.10;7.33;;;11.90;99.90;;;;;;4972747;28;20532;-79
2023/10/15 07:52:53;;;;;;;4.87;4.27;;;11.70;1.00;;;;;;4974079;28;20447;-80
2023/10/15 07:55:19;;;;;;;4.47;2.30;;;11.40;99.90;;;;;;4975278;28;20455;-79
2023/10/15 07:57:46;;;;;;;3.77;2.70;;;11.20;99.90;;;;;;4976111;28;20514;-79
2023/10/15 08:00:16;;;;;;;6.50;3.40;;;11.20;1.00;;;;;;4975475;28;20436;-79
2023/10/15 08:02:45;;;;;;;3.50;2.67;;;11.00;1.00;;;;;;4974261;28;20436;-79
2023/10/15 08:05:11;;;;;;;4.60;3.17;;;11.10;3.80;;;;;;4972149;28;20949;-80
2023/10/15 08:07:37;;;;;;;7.50;2.60;;;11.10;59.10;;;;;;4974227;28;20456;-79
2023/10/15 08:10:03;;;;;;;8.60;2.47;;;11.20;1.00;;;;;;4976021;28;20446;-78
2023/10/15 08:12:29;;;;;;;4.33;3.17;;;11.10;99.90;;;;;;4975592;28;20188;-78
2023/10/15 08:14:57;;;;;;;6.03;3.93;;;11.00;99.90;;;;;;4972893;28;20627;-79
2023/10/15 08:17:23;;;;;;;10.57;4.50;;;10.90;99.90;;;;;;4991428;28;20228;-79
2023/10/15 08:19:50;;;;;;;6.33;3.30;;;10.80;1.00;;;;;;4974729;28;20470;-80
2023/10/15 08:22:15;;;;;;;4.00;3.17;;;10.80;1.00;;;;;;4975732;28;20505;-79
2023/10/15 08:24:41;;;;;;;4.67;4.17;;;10.80;1.00;;;;;;4972085;28;20476;-79
2023/10/15 08:27:07;;;;;;;7.50;4.50;;;10.80;99.90;;;;;;4973111;28;20185;-79
2023/10/15 08:31:00;;;;;;;5.40;4.70;;;;;;;;;;5030399;28;20680;-79
2023/10/15 08:33:25;;;;;;;4.30;3.90;;;11.30;1.00;;;;;;5031018;28;20449;-79
2023/10/15 08:35:51;;;;;;;4.20;3.10;;;11.10;1.00;;;;;;5036142;28;20506;-79
2023/10/15 08:38:16;;;;;;;4.70;3.10;;;11.00;1.00;;;;;;5035640;28;20210;-80
2023/10/15 08:40:48;;;;;;;6.00;2.87;;;11.00;99.90;;;;;;5040008;28;20186;-78
2023/10/15 08:43:34;;;;;;;7.53;3.60;;;11.00;99.90;;;;;;5039279;28;20555;-78
2023/10/15 08:46:01;;;;;;;5.13;4.33;;;11.10;99.90;;;;;;5038595;28;20492;-79
2023/10/15 08:48:28;;;;;;;96.83;72.73;;;11.20;1.00;;;;;;5058973;28;20424;-79
2023/10/15 08:50:59;;;;;;;4.50;4.10;;;11.40;1.00;;;;;;5042443;28;20465;-79
2023/10/15 08:53:26;;;;;;;4.40;3.57;;;11.60;86.40;;;;;;5032274;28;20444;-78
2023/10/15 08:55:57;;;;;;;5.00;3.83;;;11.70;99.90;;;;;;5030589;28;20448;-79
2023/10/15 08:58:25;;;;;;;5.50;5.00;;;11.80;99.90;;;;;;5043887;28;20980;-79
2023/10/15 09:00:52;;;;;;;4.33;3.97;;;11.70;99.90;;;;;;5043610;28;20449;-80
2023/10/15 09:03:19;;;;;;;4.20;3.33;;;11.80;99.90;;;;;;5047765;28;20486;-80
2023/10/15 09:05:44;;;;;;;4.73;3.67;;;11.80;99.90;;;;;;5040639;28;20568;-79
2023/10/15 09:08:13;;;;;;;6.80;4.53;;;11.90;1.00;;;;;;5043981;28;20535;-78
2023/10/15 09:10:40;;;;;;;6.17;4.40;;;12.00;1.00;;;;;;5045462;28;20202;-77
2023/10/15 09:13:15;;;;;;;5.03;4.53;;;12.00;1.00;;;;;;5039142;28;20562;-79
2023/10/15 09:15:43;;;;;;;5.13;4.30;;;12.00;1.00;;;;;;5030157;28;20475;-78
2023/10/15 09:18:11;;;;;;;7.83;4.80;;;12.20;1.00;;;;;;5039798;28;20890;-79
2023/10/15 09:20:39;;;;;;;4.40;4.00;;;12.40;1.00;;;;;;5030779;28;20499;-78
2023/10/15 09:23:05;;;;;;;23.77;21.20;;;12.70;1.00;;;;;;5041422;28;20535;-78
2023/10/15 09:25:31;;;;;;;11.30;10.10;;;13.20;1.00;;;;;;5045107;28;20611;-78
2023/10/15 09:27:58;;;;;;;9.83;9.00;;;13.80;99.90;;;;;;5050019;28;20664;-79
2023/10/15 09:30:24;;;;;;;3.90;3.40;;;14.00;99.90;;;;;;5036199;28;20585;-77
2023/10/15 09:32:50;;;;;;;5.53;4.63;;;13.80;1.00;;;;;;5035191;28;20452;-77
2023/10/15 09:35:16;;;;;;;8.33;3.60;;;13.50;1.00;;;;;;5035688;28;21186;-80
2023/10/15 09:37:42;;;;;;;8.50;4.60;;;13.10;1.00;;;;;;5033963;28;20469;-79
2023/10/15 09:42:55;;;;;;;5.80;4.30;;;12.80;99.90;;;;;;5023061;28;20310;-80
2023/10/15 09:45:24;;;;;;;6.90;4.33;;;12.50;99.90;;;;;;5019257;28;20462;-79
2023/10/15 09:47:57;;;;;;;6.10;4.00;;;12.30;99.90;;;;;;5012186;28;20936;-78
2023/10/15 09:50:42;;;;;;;5.00;4.00;;;12.10;99.90;;;;;;5023549;28;20596;-79
2023/10/15 09:53:12;;;;;;;10.53;4.93;;;12.00;1.00;;;;;;5022393;28;20794;-80
2023/10/15 09:55:42;;;;;;;7.77;4.77;;;11.80;1.00;;;;;;5024873;28;20442;-79
2023/10/15 09:58:10;;;;;;;5.77;5.27;;;11.80;99.90;;;;;;5021653;28;20442;-77
2023/10/15 10:00:46;;;;;;;7.37;5.07;;;11.80;99.90;;;;;;5015480;28;20452;-78
2023/10/15 10:03:47;;;;;;;5.70;4.70;;;11.80;51.40;;;;;;5015780;28;20922;-79
2023/10/15 10:06:31;;;;;;;7.60;5.67;;;12.10;97.50;;;;;;5005080;28;20490;-77
2023/10/15 10:09:36;;;;;;;11.60;4.67;;;12.30;1.00;;;;;;5026006;28;20468;-78
2023/10/15 10:12:24;;;;;;;7.50;5.00;;;12.40;1.00;;;;;;5021348;28;20958;-78
2023/10/15 10:15:22;;;;;;;10.40;5.30;;;12.70;1.00;;;;;;5017181;28;20476;-78
2023/10/15 10:17:49;;;;;;;5.70;3.57;;;12.70;1.00;;;;;;5019759;28;20444;-79
2023/10/15 10:20:19;;;;;;;6.33;4.87;;;12.50;1.00;;;;;;5019980;28;20449;-79
2023/10/15 10:22:57;;;;;;;6.10;4.30;;;12.60;1.00;;;;;;5014449;28;20491;-77
2023/10/15 10:25:45;;;;;;;6.77;3.90;;;12.90;99.90;;;;;;5021378;28;20472;-79
2023/10/15 10:28:11;;;;;;;9.23;4.10;;;13.10;99.90;;;;;;5019970;28;20445;-80
2023/10/15 10:30:41;;;;;;;12.53;4.90;;;13.20;99.90;;;;;;5023680;28;20579;-79
2023/10/15 10:33:09;;;;;;;5.03;3.40;;;13.00;99.90;;;;;;5034918;28;20464;-80
2023/10/15 10:35:45;;;;;;;4.70;3.87;;;12.80;99.90;;;;;;5028926;28;20465;-79
2023/10/15 10:38:18;;;;;;;7.10;3.80;;;12.60;99.90;;;;;;5030162;28;20797;-80
2023/10/15 10:40:47;;;;;;;5.83;3.43;;;12.50;1.00;;;;;;5033667;28;20445;-80
2023/10/15 10:43:24;;;;;;;5.80;3.30;;;12.10;1.00;;;;;;5023389;28;20544;-79
2023/10/15 10:46:00;;;;;;;6.63;3.40;;;11.90;99.90;;;;;;5027198;28;20441;-80
2023/10/15 10:48:28;;;;;;;4.33;2.77;;;11.70;1.00;;;;;;5033995;28;20528;-80
2023/10/15 10:51:15;;;;;;;6.77;3.70;;;11.60;99.90;;;;;;5028769;28;20477;-80
2023/10/15 10:53:56;;;;;;;7.27;3.20;;;11.60;99.90;;;;;;5020213;28;20488;-79
2023/10/15 10:56:23;;;;;;;3.70;2.80;;;11.80;99.90;;;;;;5033042;28;20516;-79
2023/10/15 10:58:52;;;;;;;4.57;3.57;;;12.00;1.00;;;;;;5029468;28;20444;-80
2023/10/15 11:01:19;;;;;;;5.90;4.00;;;12.50;99.90;;;;;;5033943;28;20441;-81
2023/10/15 11:03:47;;;;;;;5.53;2.50;;;13.00;1.00;;;;;;5028716;28;20461;-81
2023/10/15 11:06:13;;;;;;;9.47;3.03;;;13.70;99.90;;;;;;5028135;28;20462;-79
2023/10/15 11:08:39;;;;;;;6.50;2.60;;;13.80;99.90;;;;;;5032598;28;20472;-80
2023/10/15 11:11:04;;;;;;;4.10;2.30;;;14.00;99.90;;;;;;5026637;28;20471;-79
2023/10/15 11:13:30;;;;;;;4.53;2.23;;;15.10;99.90;;;;;;5029123;28;20703;-80
2023/10/15 11:15:56;;;;;;;3.33;1.37;;;17.30;1.00;;;;;;5030537;28;20182;-81
2023/10/15 11:18:26;;;;;;;3.60;1.37;;;19.30;1.00;;;;;;5030588;28;20429;-80
2023/10/15 11:20:52;;;;;;;4.33;1.53;;;20.60;1.00;;;;;;5029664;28;20277;-80
2023/10/15 11:23:19;;;;;;;2.37;1.30;;;21.90;1.00;;;;;;5031643;28;21009;-79
2023/10/15 11:25:45;;;;;;;4.70;1.40;;;22.60;1.00;;;;;;5018755;28;20418;-79
2023/10/15 11:28:11;;;;;;;4.33;1.40;;;21.90;1.00;;;;;;5020624;28;20470;-80
2023/10/15 11:30:41;;;;;;;2.93;0.83;;;22.40;99.90;;;;;;5028656;28;20480;-79
2023/10/15 11:33:10;;;;;;;3.70;1.67;;;21.60;99.90;;;;;;5029682;28;20515;-80
2023/10/15 11:35:40;;;;;;;3.43;1.30;;;21.50;99.90;;;;;;5033098;28;20437;-79
2023/10/15 11:38:10;;;;;;;3.33;1.20;;;22.20;99.90;;;;;;5022121;28;20477;-81
2023/10/15 11:40:38;;;;;;;2.67;1.80;;;23.00;99.90;;;;;;5025722;28;20453;-80
2023/10/15 11:43:12;;;;;;;5.00;1.93;;;23.40;99.90;;;;;;5024853;28;20472;-80
2023/10/15 11:45:39;;;;;;;5.03;2.20;;;22.80;99.90;;;;;;5033302;28;20495;-80
2023/10/15 11:48:11;;;;;;;2.07;0.90;;;21.90;99.90;;;;;;5020695;28;20784;-79
2023/10/15 11:50:40;;;;;;;6.30;5.70;;;20.50;99.90;;;;;;5024003;28;20476;-79
2023/10/15 11:53:18;;;;;;;5.10;2.17;;;19.80;99.90;;;;;;5022696;28;20440;-79
2023/10/15 11:55:47;;;;;;;2.70;1.37;;;19.50;99.90;;;;;;5026388;28;20433;-79
2023/10/15 11:58:16;;;;;;;3.80;1.20;;;18.80;99.90;;;;;;5026890;28;21004;-78
2023/10/15 12:00:42;;;;;;;3.20;1.90;;;17.90;99.90;;;;;;5020257;28;20528;-79
2023/10/15 12:03:09;;;;;;;4.67;1.90;;;17.30;99.90;;;;;;5022182;28;20469;-79
2023/10/15 12:05:35;;;;;;;4.40;2.33;;;16.70;99.90;;;;;;5027397;28;20449;-79
2023/10/15 12:08:04;;;;;;;3.00;1.10;;;16.40;99.90;;;;;;5026955;28;20469;-80
2023/10/15 12:10:33;;;;;;;3.03;1.43;;;16.00;99.90;;;;;;5027523;28;20469;-78
2023/10/15 12:12:58;;;;;;;2.40;1.40;;;15.90;99.90;;;;;;5023780;28;20437;-79
2023/10/15 12:15:29;;;;;;;6.00;1.53;;;15.90;99.90;;;;;;5018990;28;20852;-79
2023/10/15 12:17:56;;;;;;;5.73;1.17;;;15.90;99.90;;;;;;5023119;28;20186;-80
2023/10/15 12:20:23;;;;;;;3.83;1.40;;;15.90;99.90;;;;;;5031808;28;20824;-80
2023/10/15 12:22:48;;;;;;;2.90;1.30;;;16.10;99.90;;;;;;5020622;28;20451;-79
2023/10/15 12:25:14;;;;;;;4.40;1.50;;;16.20;99.90;;;;;;5021824;28;20460;-80
2023/10/15 12:27:39;;;;;;;2.73;1.07;;;16.20;99.90;;;;;;5020306;28;20649;-79
2023/10/15 12:30:12;;;;;;;2.43;1.63;;;16.00;99.90;;;;;;5020058;28;20207;-79
2023/10/15 12:32:37;;;;;;;3.90;1.60;;;16.20;99.90;;;;;;5021293;28;20366;-79
2023/10/15 12:35:10;;;;;;;4.20;1.00;;;16.50;99.90;;;;;;5030692;28;20512;-80
2023/10/15 12:37:36;;;;;;;2.60;1.53;;;17.10;99.90;;;;;;5029342;28;20662;-79
2023/10/15 12:40:08;;;;;;;4.73;1.30;;;18.20;99.90;;;;;;5027278;28;20433;-80
2023/10/15 12:42:33;;;;;;;3.80;1.67;;;19.00;99.90;;;;;;5016460;28;20183;-80
2023/10/15 12:44:59;;;;;;;4.03;1.00;;;19.50;99.90;;;;;;5026494;28;20893;-79
2023/10/15 12:47:24;;;;;;;5.50;1.30;;;19.60;99.90;;;;;;5030385;28;20193;-79
2023/10/15 12:49:50;;;;;;;4.60;4.07;;;19.00;99.90;;;;;;5026008;28;20276;-79
2023/10/15 12:52:15;;;;;;;3.93;2.57;;;19.20;99.90;;;;;;5027131;28;20195;-80
2023/10/15 12:54:41;;;;;;;5.53;1.70;;;19.70;99.90;;;;;;5019430;28;20218;-80
2023/10/15 12:57:06;;;;;;;2.10;1.20;;;20.10;99.90;;;;;;5022820;28;20252;-81
2023/10/15 12:59:32;;;;;;;3.40;1.07;;;20.50;99.90;;;;;;5027714;28;20224;-80
2023/10/15 13:01:57;;;;;;;6.53;1.53;;;20.80;99.90;;;;;;5025148;28;20233;-79
2023/10/15 13:04:24;;;;;;;3.43;1.10;;;20.80;99.90;;;;;;5027264;28;20203;-80
2023/10/15 13:06:49;;;;;;;5.37;3.53;;;20.90;99.90;;;;;;5026078;28;20179;-79
2023/10/15 13:09:25;;;;;;;5.53;4.13;;;20.90;99.90;;;;;;5031312;28;20469;-79
2023/10/15 13:11:51;;;;;;;13.63;10.17;;;20.50;99.90;;;;;;5026711;28;20610;-79
2023/10/15 13:14:17;;;;;;;5.67;3.30;;;20.60;99.90;;;;;;5028527;28;20487;-80
2023/10/15 13:16:42;;;;;;;12.20;6.10;;;20.70;99.90;;;;;;5027525;28;20268;-80
2023/10/15 13:19:08;;;;;;;7.17;1.67;;;20.10;99.90;;;;;;5026408;28;20233;-79
2023/10/15 13:21:33;;;;;;;20.23;14.93;;;19.50;99.90;;;;;;5029557;28;20266;-78
2023/10/15 13:23:59;;;;;;;4.43;3.47;;;19.30;99.90;;;;;;5032160;28;20210;-79
2023/10/15 13:26:24;;;;;;;7.10;3.40;;;19.00;99.90;;;;;;5027290;28;20187;-80
2023/10/15 13:28:53;;;;;;;3.77;2.23;;;18.90;99.90;;;;;;5030225;28;20190;-80
2023/10/15 13:31:18;;;;;;;2.73;1.40;;;18.90;99.90;;;;;;5027220;28;20179;-80
2023/10/15 13:33:44;;;;;;;3.10;1.30;;;19.10;99.90;;;;;;5030823;28;20480;-80